TimeEST,TemperatureF,Dew PointF,Humidity,Sea Level PressureIn,VisibilityMPH,Wind Direction,Wind SpeedMPH,Gust SpeedMPH,PrecipitationIn,Events,Conditions,WindDirDegrees,DateUTC
12:53 AM,55.9,44.1,64,30.20,10.0,East,4.6,-,N/A,,Clear,100,2013-03-09 05:53:00
1:53 AM,57.0,46.9,69,30.20,10.0,Calm,Calm,-,N/A,,Clear,0,2013-03-09 06:53:00
2:53 AM,57.0,46.9,69,30.17,10.0,East,5.8,-,N/A,,Clear,90,2013-03-09 07:53:00
3:53 AM,55.9,46.9,72,30.18,10.0,ENE,5.8,-,N/A,,Clear,70,2013-03-09 08:53:00
4:53 AM,55.9,46.9,72,30.18,9.0,ENE,6.9,-,N/A,,Clear,70,2013-03-09 09:53:00
5:53 AM,55.0,48.0,77,30.19,8.0,ENE,5.8,-,N/A,,Clear,70,2013-03-09 10:53:00
6:53 AM,55.0,48.0,77,30.21,7.0,ENE,6.9,-,N/A,,Clear,60,2013-03-09 11:53:00
7:53 AM,57.0,46.9,69,30.22,8.0,ENE,6.9,-,N/A,,Clear,70,2013-03-09 12:53:00
8:53 AM,59.0,48.0,67,30.24,7.0,ENE,8.1,-,N/A,,Clear,70,2013-03-09 13:53:00
9:53 AM,64.0,48.0,56,30.23,10.0,ENE,6.9,-,N/A,,Clear,70,2013-03-09 14:53:00
10:53 AM,66.0,46.0,48,30.24,10.0,East,6.9,-,N/A,,Clear,80,2013-03-09 15:53:00
11:53 AM,70.0,42.1,36,30.22,10.0,East,9.2,-,N/A,,Clear,80,2013-03-09 16:53:00
12:53 PM,73.0,42.1,33,30.20,10.0,ENE,6.9,-,N/A,,Clear,70,2013-03-09 17:53:00
1:53 PM,72.0,41.0,33,30.17,10.0,East,3.5,-,N/A,,Clear,80,2013-03-09 18:53:00
2:53 PM,73.0,41.0,31,30.16,10.0,Calm,Calm,-,N/A,,Clear,0,2013-03-09 19:53:00
3:53 PM,73.9,41.0,30,30.15,10.0,Calm,Calm,-,N/A,,Clear,0,2013-03-09 20:53:00
4:53 PM,71.1,46.9,42,30.16,10.0,NW,10.4,-,N/A,,Clear,320,2013-03-09 21:53:00
5:53 PM,66.9,46.9,49,30.15,10.0,NNW,8.1,-,N/A,,Clear,340,2013-03-09 22:53:00
6:53 PM,64.9,48.0,54,30.17,10.0,NNW,6.9,-,N/A,,Clear,330,2013-03-09 23:53:00
7:53 PM,63.0,48.9,60,30.19,10.0,NNW,8.1,-,N/A,,Clear,330,2013-03-10 00:53:00
8:53 PM,62.1,51.1,67,30.19,10.0,ENE,3.5,-,N/A,,Clear,60,2013-03-10 01:53:00
9:53 PM,63.0,51.1,65,30.19,10.0,East,9.2,-,N/A,,Clear,100,2013-03-10 02:53:00
10:53 PM,64.0,50.0,60,30.19,10.0,ESE,10.4,-,N/A,,Clear,110,2013-03-10 03:53:00
11:53 PM,62.1,50.0,65,30.19,10.0,ESE,10.4,-,N/A,,Clear,110,2013-03-10 04:53:00